Time;durP1;ratioP1;P1;durP2;ratioP2;P2;SDS_P1;SDS_P2;PMS_P1;PMS_P2;Temp;Humidity;BMP_temperature;BMP_pressure;BME280_temperature;BME280_humidity;BME280_pressure;Samples;Min_cycle;Max_cycle;Signal;HPM_P1;HPM_P2
2023/05/05 00:01:53;;;;;;;9.30;7.27;;;19.10;78.30;;;;;;5023442;28;20721;-65
2023/05/05 00:04:21;;;;;;;8.23;7.50;;;19.00;79.30;;;;;;5026905;28;20242;-65
2023/05/05 00:06:47;;;;;;;8.87;8.07;;;18.90;80.10;;;;;;5021913;28;20550;-65
2023/05/05 00:09:13;;;;;;;15.63;10.03;;;18.90;80.40;;;;;;5022715;28;20465;-65
2023/05/05 00:11:38;;;;;;;9.17;8.10;;;18.90;81.50;;;;;;5023035;28;20450;-65
2023/05/05 00:14:05;;;;;;;8.80;8.00;;;18.90;81.80;;;;;;5026508;28;20177;-65
2023/05/05 00:16:31;;;;;;;9.37;8.30;;;19.00;83.00;;;;;;5018551;28;20658;-65
2023/05/05 00:18:57;;;;;;;10.27;9.27;;;19.00;82.80;;;;;;5025683;28;20504;-65
2023/05/05 00:21:23;;;;;;;9.70;8.47;;;19.10;82.60;;;;;;5025072;28;20181;-64
2023/05/05 00:23:49;;;;;;;8.73;8.00;;;19.00;82.90;;;;;;5025026;28;20513;-65
2023/05/05 00:26:14;;;;;;;12.00;8.83;;;19.00;83.60;;;;;;5021581;28;20748;-65
2023/05/05 00:28:40;;;;;;;8.87;7.97;;;18.90;84.10;;;;;;5023401;28;20700;-64
2023/05/05 00:31:06;;;;;;;9.77;8.50;;;18.90;85.40;;;;;;5020430;28;20279;-65
2023/05/05 00:33:31;;;;;;;9.83;8.57;;;18.90;85.50;;;;;;5023442;28;20187;-65
2023/05/05 00:35:57;;;;;;;12.17;8.60;;;18.90;85.60;;;;;;5021953;28;20432;-65
2023/05/05 00:38:23;;;;;;;9.50;8.43;;;19.00;85.90;;;;;;5023737;28;20196;-66
2023/05/05 00:40:48;;;;;;;8.87;7.97;;;19.00;86.60;;;;;;5020414;28;20291;-65
2023/05/05 00:43:14;;;;;;;10.97;9.97;;;18.90;87.40;;;;;;5022452;28;20189;-65
2023/05/05 00:45:42;;;;;;;10.23;9.07;;;18.90;88.00;;;;;;5020115;28;20212;-65
2023/05/05 00:48:08;;;;;;;9.20;8.10;;;18.90;88.90;;;;;;5018622;28;20231;-65
2023/05/05 00:50:34;;;;;;;9.77;8.80;;;18.80;89.80;;;;;;5020791;28;20463;-65
2023/05/05 00:53:01;;;;;;;9.80;8.87;;;18.80;90.10;;;;;;5020039;28;20203;-65
2023/05/05 00:55:29;;;;;;;16.10;8.90;;;18.80;90.00;;;;;;5022480;28;20187;-65
2023/05/05 00:57:59;;;;;;;8.77;7.97;;;18.80;90.10;;;;;;5019631;28;22303;-65
2023/05/05 01:00:25;;;;;;;9.87;7.90;;;18.80;90.40;;;;;;5022162;28;20924;-65
2023/05/05 01:02:51;;;;;;;9.70;8.70;;;18.80;90.40;;;;;;5023469;28;20450;-65
2023/05/05 01:05:18;;;;;;;9.83;8.93;;;18.70;90.90;;;;;;5017794;28;20887;-65
2023/05/05 01:07:54;;;;;;;8.70;7.90;;;18.60;91.40;;;;;;5021218;28;20193;-65
2023/05/05 01:10:37;;;;;;;8.70;7.90;;;18.60;92.10;;;;;;5023755;28;20520;-65
2023/05/05 01:13:24;;;;;;;10.97;8.80;;;18.50;92.30;;;;;;5022207;28;20463;-65
2023/05/05 01:16:19;;;;;;;8.30;7.50;;;18.60;92.00;;;;;;5025589;28;20461;-64
2023/05/05 01:19:03;;;;;;;9.90;8.10;;;18.70;91.80;;;;;;5018915;28;20875;-65
2023/05/05 01:21:34;;;;;;;9.30;8.40;;;18.60;92.00;;;;;;5022609;28;20431;-65
2023/05/05 01:24:22;;;;;;;9.40;8.50;;;18.60;92.50;;;;;;5021167;28;20442;-64
2023/05/05 01:27:26;;;;;;;8.67;7.87;;;18.60;92.80;;;;;;5026862;28;20407;-64
2023/05/05 01:30:16;;;;;;;9.10;8.20;;;18.60;92.80;;;;;;5014877;28;20995;-64
2023/05/05 01:32:54;;;;;;;12.23;9.00;;;18.50;93.30;;;;;;5023068;28;20427;-64
2023/05/05 01:35:23;;;;;;;8.23;7.53;;;18.50;93.60;;;;;;5021320;28;20435;-64
2023/05/05 01:37:54;;;;;;;10.00;8.87;;;18.40;94.00;;;;;;5023986;28;20442;-63
2023/05/05 01:40:25;;;;;;;9.77;8.80;;;18.40;94.20;;;;;;5022926;28;20577;-64
2023/05/05 01:42:51;;;;;;;9.40;8.30;;;18.30;94.60;;;;;;5024601;28;20831;-64
2023/05/05 01:45:21;;;;;;;8.90;8.00;;;18.40;94.80;;;;;;5023276;28;20450;-64
2023/05/05 01:47:47;;;;;;;10.27;8.30;;;18.40;94.70;;;;;;5021448;28;20438;-64
2023/05/05 01:50:14;;;;;;;8.37;7.57;;;18.40;95.00;;;;;;5019979;28;20477;-64
2023/05/05 01:52:41;;;;;;;9.43;8.50;;;18.30;95.20;;;;;;5020748;28;21048;-64
2023/05/05 01:55:09;;;;;;;8.73;8.00;;;18.30;95.40;;;;;;5026580;28;20418;-64
2023/05/05 01:57:37;;;;;;;10.03;8.10;;;18.30;95.60;;;;;;5024735;28;20415;-64
2023/05/05 02:00:03;;;;;;;9.50;8.60;;;18.40;95.60;;;;;;5023149;28;20454;-64
2023/05/05 02:02:31;;;;;;;9.37;8.37;;;18.30;95.90;;;;;;5019304;28;20538;-64
2023/05/05 02:04:57;;;;;;;9.53;8.17;;;18.40;95.90;;;;;;5020030;28;20956;-64
2023/05/05 02:07:23;;;;;;;8.20;7.50;;;18.40;96.20;;;;;;5020946;28;20484;-64
2023/05/05 02:09:50;;;;;;;10.60;7.60;;;18.40;96.40;;;;;;5016060;28;20463;-64
2023/05/05 02:12:18;;;;;;;8.07;6.90;;;18.50;96.40;;;;;;5019696;28;20414;-64
2023/05/05 02:14:45;;;;;;;10.07;7.20;;;18.60;96.30;;;;;;5020919;28;20438;-64
2023/05/05 02:17:12;;;;;;;7.87;7.07;;;18.60;96.40;;;;;;5023501;28;20415;-64
2023/05/05 02:19:40;;;;;;;9.03;7.37;;;18.50;96.80;;;;;;5018574;28;20628;-65
2023/05/05 02:22:06;;;;;;;7.90;7.10;;;18.50;96.90;;;;;;5023806;28;20423;-64
2023/05/05 02:24:32;;;;;;;7.70;6.90;;;18.60;96.70;;;;;;5024928;28;20437;-65
2023/05/05 02:27:01;;;;;;;8.40;7.60;;;18.60;97.00;;;;;;5026360;28;20423;-64
2023/05/05 02:29:31;;;;;;;8.60;7.80;;;18.60;97.30;;;;;;5024758;28;20208;-64
2023/05/05 02:32:02;;;;;;;9.83;7.77;;;18.40;97.80;;;;;;5025532;28;20716;-64
2023/05/05 02:34:34;;;;;;;7.87;7.07;;;18.40;98.30;;;;;;5008083;28;20463;-64
2023/05/05 02:37:03;;;;;;;9.07;7.40;;;18.50;98.20;;;;;;5027399;28;20418;-64
2023/05/05 02:39:42;;;;;;;7.50;6.80;;;18.50;98.30;;;;;;5025339;28;20466;-64
2023/05/05 02:42:09;;;;;;;8.37;6.67;;;18.50;98.50;;;;;;5026745;28;20788;-64
2023/05/05 02:44:37;;;;;;;12.63;7.57;;;18.60;98.60;;;;;;5028128;28;20421;-64
2023/05/05 02:47:03;;;;;;;7.10;6.50;;;18.50;98.80;;;;;;5024864;28;20435;-64
2023/05/05 02:49:29;;;;;;;6.67;6.07;;;18.40;99.20;;;;;;5025139;28;20486;-64
2023/05/05 02:51:56;;;;;;;8.23;7.10;;;18.50;99.30;;;;;;5020726;28;20507;-64
2023/05/05 02:54:22;;;;;;;7.63;6.80;;;18.50;99.70;;;;;;5022006;28;20287;-64
2023/05/05 02:56:53;;;;;;;7.23;6.53;;;18.50;99.70;;;;;;5020586;28;21250;-64
2023/05/05 02:59:46;;;;;;;7.93;7.00;;;18.60;99.70;;;;;;5021587;28;20209;-64
2023/05/05 03:02:22;;;;;;;6.80;6.10;;;18.60;99.80;;;;;;5024408;28;20427;-64
2023/05/05 03:04:52;;;;;;;10.33;7.50;;;18.60;99.80;;;;;;5027770;28;20446;-64
2023/05/05 03:07:25;;;;;;;10.03;6.80;;;18.60;99.90;;;;;;5023180;28;20431;-64
2023/05/05 03:10:04;;;;;;;7.80;6.50;;;18.60;99.90;;;;;;5024085;28;20454;-64
2023/05/05 03:12:37;;;;;;;7.97;7.17;;;18.60;99.90;;;;;;5029880;28;20419;-64
2023/05/05 03:15:07;;;;;;;7.97;6.80;;;18.60;99.90;;;;;;5027313;28;20434;-64
2023/05/05 03:17:35;;;;;;;7.07;6.37;;;18.60;99.90;;;;;;5023766;28;20999;-64
2023/05/05 03:20:03;;;;;;;8.03;6.90;;;18.60;99.90;;;;;;5024430;28;20415;-65
2023/05/05 03:22:29;;;;;;;6.97;6.37;;;18.60;99.90;;;;;;5026243;28;20442;-65
2023/05/05 03:24:55;;;;;;;7.30;6.60;;;18.60;99.90;;;;;;5023581;28;20438;-64
2023/05/05 03:27:20;;;;;;;7.53;6.40;;;18.60;99.90;;;;;;5028060;28;20589;-65
2023/05/05 03:29:46;;;;;;;7.80;7.00;;;18.60;99.90;;;;;;5025700;28;20215;-64
2023/05/05 03:32:11;;;;;;;7.00;6.30;;;18.60;99.90;;;;;;5026613;28;20909;-64
2023/05/05 03:34:37;;;;;;;7.30;6.57;;;18.60;99.90;;;;;;5025507;28;20176;-64
2023/05/05 03:37:03;;;;;;;10.10;8.37;;;18.60;99.90;;;;;;5020954;28;20184;-64
2023/05/05 03:39:28;;;;;;;9.30;7.20;;;18.60;99.90;;;;;;5025568;28;20213;-65
2023/05/05 03:41:55;;;;;;;8.30;7.07;;;18.50;99.90;;;;;;5024460;28;20202;-65
2023/05/05 03:44:20;;;;;;;8.00;7.20;;;18.50;99.90;;;;;;5025677;28;20423;-64
2023/05/05 03:46:46;;;;;;;7.80;7.00;;;18.50;99.90;;;;;;5023256;28;20302;-65
2023/05/05 03:49:11;;;;;;;7.37;6.67;;;18.50;99.90;;;;;;5022900;28;20208;-65
2023/05/05 03:51:37;;;;;;;7.37;6.67;;;18.40;99.90;;;;;;5021733;28;20251;-64
2023/05/05 03:54:02;;;;;;;9.70;6.50;;;18.40;99.90;;;;;;5025066;28;20185;-65
2023/05/05 03:56:28;;;;;;;7.83;6.97;;;18.60;99.90;;;;;;5019788;28;20271;-65
2023/05/05 03:58:53;;;;;;;6.53;5.93;;;18.60;99.90;;;;;;5021631;28;20212;-64
2023/05/05 04:01:19;;;;;;;7.30;6.60;;;18.70;99.90;;;;;;5022511;28;20196;-65
2023/05/05 04:03:44;;;;;;;7.10;6.40;;;18.70;99.90;;;;;;5024818;28;20266;-64
2023/05/05 04:06:10;;;;;;;11.30;6.83;;;18.60;99.90;;;;;;5025219;28;20226;-65
2023/05/05 04:08:36;;;;;;;7.77;6.83;;;18.60;99.90;;;;;;5025594;28;20204;-65
2023/05/05 04:11:01;;;;;;;7.70;6.70;;;18.50;99.90;;;;;;5024230;28;20208;-63
2023/05/05 04:13:28;;;;;;;8.37;6.90;;;18.60;99.90;;;;;;5026071;28;20180;-64
2023/05/05 04:15:53;;;;;;;8.13;7.33;;;18.50;99.90;;;;;;5024795;28;20693;-64
2023/05/05 04:18:19;;;;;;;8.07;6.90;;;18.50;99.90;;;;;;5024921;28;20570;-64
2023/05/05 04:20:45;;;;;;;9.47;6.93;;;18.50;99.90;;;;;;5020215;28;20187;-64
2023/05/05 04:23:11;;;;;;;8.23;7.43;;;18.40;99.90;;;;;;5022316;28;20197;-65
2023/05/05 04:25:36;;;;;;;7.37;6.73;;;18.50;99.90;;;;;;5021334;28;20465;-64
2023/05/05 04:28:02;;;;;;;7.50;6.70;;;18.50;99.90;;;;;;5017148;28;20243;-64
2023/05/05 04:30:27;;;;;;;12.73;6.20;;;18.50;99.90;;;;;;5021831;28;20219;-64
2023/05/05 04:32:53;;;;;;;6.63;6.03;;;18.40;99.90;;;;;;5020797;28;20193;-64
2023/05/05 04:35:18;;;;;;;7.00;6.30;;;18.50;99.90;;;;;;5020008;28;20188;-64
2023/05/05 04:37:44;;;;;;;7.50;6.80;;;18.50;99.90;;;;;;5022314;28;20658;-64
2023/05/05 04:40:10;;;;;;;7.67;6.20;;;18.60;99.90;;;;;;5019848;28;20283;-64
2023/05/05 04:42:37;;;;;;;9.03;6.60;;;18.60;99.90;;;;;;5020212;28;20439;-64
2023/05/05 04:45:03;;;;;;;6.70;5.93;;;18.70;99.90;;;;;;5023959;28;20431;-64
2023/05/05 04:47:28;;;;;;;7.53;6.40;;;18.80;99.90;;;;;;5023354;28;20419;-64
2023/05/05 04:49:54;;;;;;;6.57;5.93;;;18.70;99.90;;;;;;5022083;28;20457;-64
2023/05/05 04:52:20;;;;;;;10.70;6.73;;;18.80;99.90;;;;;;5025129;28;20242;-65
2023/05/05 04:54:46;;;;;;;6.73;6.00;;;18.80;99.90;;;;;;5024306;28;20847;-65
2023/05/05 04:57:11;;;;;;;7.80;6.03;;;18.70;99.90;;;;;;5024978;28;20212;-65
2023/05/05 04:59:37;;;;;;;9.23;5.67;;;18.80;99.90;;;;;;5021549;28;20305;-65
2023/05/05 05:02:02;;;;;;;6.70;5.50;;;18.80;99.90;;;;;;5024451;28;20188;-65
2023/05/05 05:04:28;;;;;;;6.90;6.30;;;18.80;99.90;;;;;;5025035;28;20180;-65
2023/05/05 05:06:53;;;;;;;5.90;5.40;;;18.80;99.90;;;;;;5021682;28;20195;-65
2023/05/05 05:09:19;;;;;;;6.33;5.73;;;18.90;99.90;;;;;;5023452;28;20215;-65
2023/05/05 05:11:44;;;;;;;7.13;5.30;;;18.90;99.90;;;;;;5024624;28;20208;-65
2023/05/05 05:14:10;;;;;;;5.77;5.27;;;18.90;99.90;;;;;;5025492;28;20184;-65
2023/05/05 05:16:36;;;;;;;6.33;5.10;;;19.00;99.90;;;;;;5025485;28;20195;-64
2023/05/05 05:19:01;;;;;;;5.40;4.90;;;19.10;99.90;;;;;;5021952;28;20283;-65
2023/05/05 05:21:27;;;;;;;7.83;4.93;;;19.20;99.90;;;;;;5025902;28;20187;-65
2023/05/05 05:23:52;;;;;;;5.80;5.00;;;19.30;99.90;;;;;;5023822;28;20658;-64
2023/05/05 05:26:18;;;;;;;6.37;4.80;;;19.30;99.90;;;;;;5020245;28;20238;-65
2023/05/05 05:28:44;;;;;;;5.17;4.67;;;19.40;99.90;;;;;;5018470;28;20212;-64
2023/05/05 05:31:09;;;;;;;5.43;4.90;;;19.50;99.90;;;;;;5020455;28;20247;-65
2023/05/05 05:33:35;;;;;;;5.40;4.90;;;19.50;99.90;;;;;;5022078;28;20188;-65
2023/05/05 05:36:01;;;;;;;4.87;4.47;;;19.50;99.90;;;;;;5019936;28;20292;-65
2023/05/05 05:38:26;;;;;;;7.30;4.83;;;19.50;99.90;;;;;;5023709;28;20196;-65
2023/05/05 05:40:53;;;;;;;5.87;5.37;;;19.60;99.90;;;;;;5021468;28;20231;-65
2023/05/05 05:43:18;;;;;;;5.30;4.80;;;19.60;99.90;;;;;;5020245;28;20199;-65
2023/05/05 05:45:44;;;;;;;8.03;5.27;;;19.60;99.90;;;;;;5021748;28;20427;-65
2023/05/05 05:48:10;;;;;;;10.67;4.50;;;19.60;99.90;;;;;;5016712;28;20799;-65
2023/05/05 05:50:35;;;;;;;5.47;4.60;;;19.70;99.90;;;;;;5018318;28;20709;-65
2023/05/05 05:53:01;;;;;;;7.17;5.37;;;19.80;99.90;;;;;;5022054;28;20657;-65
2023/05/05 05:55:26;;;;;;;5.00;4.50;;;19.80;99.90;;;;;;5022906;28;20635;-65
2023/05/05 05:57:52;;;;;;;4.87;4.00;;;19.90;99.90;;;;;;5020870;28;20691;-65
2023/05/05 06:00:18;;;;;;;5.40;4.70;;;19.80;99.90;;;;;;5022433;28;20634;-65
2023/05/05 06:02:43;;;;;;;7.60;5.93;;;19.90;99.90;;;;;;5019997;28;20646;-64
2023/05/05 06:05:09;;;;;;;6.50;4.40;;;19.90;99.90;;;;;;5018651;28;20212;-65
2023/05/05 06:07:35;;;;;;;4.63;4.23;;;20.00;99.90;;;;;;5018515;28;20592;-64
2023/05/05 06:10:00;;;;;;;4.50;4.10;;;20.10;99.90;;;;;;5022160;28;20466;-64
2023/05/05 06:12:26;;;;;;;5.00;4.50;;;20.00;99.90;;;;;;5019893;28;20576;-64
2023/05/05 06:14:52;;;;;;;11.90;5.37;;;20.00;99.90;;;;;;5024059;28;20250;-64
2023/05/05 06:17:17;;;;;;;6.80;5.27;;;20.10;99.90;;;;;;5022455;28;20545;-64
2023/05/05 06:19:43;;;;;;;6.37;4.63;;;20.20;99.90;;;;;;5021919;28;20745;-64
2023/05/05 06:22:08;;;;;;;5.97;4.87;;;20.30;99.90;;;;;;5018477;28;20662;-64
2023/05/05 06:24:34;;;;;;;8.50;4.70;;;20.30;99.90;;;;;;5024403;28;20200;-64
2023/05/05 06:27:01;;;;;;;5.43;4.73;;;20.40;99.90;;;;;;5022155;28;20188;-64
2023/05/05 06:29:27;;;;;;;6.37;4.57;;;20.50;99.90;;;;;;5019818;28;20204;-64
2023/05/05 06:31:53;;;;;;;5.53;4.93;;;20.50;99.90;;;;;;5020575;28;20475;-64
2023/05/05 06:34:18;;;;;;;4.90;4.40;;;20.60;99.90;;;;;;5022553;28;20480;-64
2023/05/05 06:36:44;;;;;;;5.30;4.20;;;20.60;99.90;;;;;;5025642;28;20258;-64
2023/05/05 06:39:10;;;;;;;6.07;4.20;;;20.70;99.90;;;;;;5024448;28;20295;-64
2023/05/05 06:41:36;;;;;;;5.07;4.17;;;20.80;99.90;;;;;;5024471;28;20302;-64
2023/05/05 06:44:01;;;;;;;4.97;4.40;;;20.90;99.90;;;;;;5023631;28;20189;-65
2023/05/05 06:46:27;;;;;;;5.93;4.50;;;21.00;99.90;;;;;;5020927;28;20192;-64
2023/05/05 06:48:53;;;;;;;5.63;4.60;;;21.00;99.90;;;;;;5020268;28;20225;-64
2023/05/05 06:51:19;;;;;;;6.47;5.67;;;21.00;99.90;;;;;;5014794;28;20471;-64
2023/05/05 06:53:44;;;;;;;19.43;8.00;;;21.10;99.90;;;;;;5018524;28;20196;-64
2023/05/05 06:56:10;;;;;;;6.30;5.10;;;21.10;99.90;;;;;;5018439;28;20192;-65
2023/05/05 06:58:36;;;;;;;5.13;4.70;;;21.20;99.90;;;;;;5020968;28;20235;-65
2023/05/05 07:01:02;;;;;;;10.60;6.10;;;21.20;99.90;;;;;;5018406;28;20242;-65
2023/05/05 07:03:28;;;;;;;11.30;5.07;;;21.20;99.90;;;;;;5019920;28;20183;-65
2023/05/05 07:05:54;;;;;;;7.00;4.70;;;21.10;99.90;;;;;;5018539;28;20420;-65
2023/05/05 07:08:20;;;;;;;5.23;4.27;;;21.20;99.90;;;;;;5022224;28;20446;-65
2023/05/05 07:10:46;;;;;;;7.37;5.20;;;21.20;99.90;;;;;;5021158;28;20212;-65
2023/05/05 07:13:13;;;;;;;11.70;5.40;;;21.20;99.90;;;;;;5027239;28;20639;-65
2023/05/05 07:15:45;;;;;;;6.63;5.00;;;21.10;99.90;;;;;;5025315;28;20189;-65
2023/05/05 07:18:15;;;;;;;6.73;4.23;;;21.10;99.90;;;;;;5019918;28;20458;-65
2023/05/05 07:20:42;;;;;;;5.40;4.73;;;21.10;99.90;;;;;;5024619;28;20467;-65
2023/05/05 07:23:08;;;;;;;5.67;4.80;;;21.20;99.90;;;;;;5026529;28;20423;-65
2023/05/05 07:25:34;;;;;;;5.07;4.57;;;21.20;99.90;;;;;;5025308;28;20434;-65
2023/05/05 07:28:00;;;;;;;7.37;4.80;;;21.30;99.90;;;;;;5022570;28;20463;-65
2023/05/05 07:30:25;;;;;;;8.17;5.33;;;21.30;99.90;;;;;;5022353;28;20235;-65
2023/05/05 07:32:51;;;;;;;8.00;4.73;;;21.30;99.90;;;;;;5026724;28;20184;-65
2023/05/05 07:35:16;;;;;;;6.27;4.90;;;21.20;99.90;;;;;;5022886;28;20216;-65
2023/05/05 07:37:44;;;;;;;5.60;4.77;;;21.30;99.90;;;;;;5027218;28;20622;-65
2023/05/05 07:40:10;;;;;;;5.40;4.50;;;21.20;99.90;;;;;;5022569;28;20196;-65
2023/05/05 07:42:35;;;;;;;7.10;4.17;;;21.20;99.90;;;;;;5025905;28;20463;-65
2023/05/05 07:45:01;;;;;;;4.93;4.43;;;21.20;99.90;;;;;;5025288;28;20466;-66
2023/05/05 07:47:26;;;;;;;6.77;4.80;;;21.20;99.90;;;;;;5025290;28;20393;-65
2023/05/05 07:49:53;;;;;;;4.73;4.23;;;21.20;99.90;;;;;;5022339;28;20216;-65
2023/05/05 07:52:18;;;;;;;5.10;4.07;;;21.20;99.90;;;;;;5026171;28;20212;-65
2023/05/05 07:54:44;;;;;;;5.10;4.23;;;21.10;99.90;;;;;;5024693;28;20459;-65
2023/05/05 07:57:10;;;;;;;4.77;4.33;;;21.00;99.90;;;;;;5025562;28;20187;-65
2023/05/05 07:59:37;;;;;;;5.23;4.40;;;21.00;99.90;;;;;;5020741;28;20197;-65
2023/05/05 08:02:03;;;;;;;4.73;4.33;;;21.00;99.90;;;;;;5025331;28;20423;-65
2023/05/05 08:04:28;;;;;;;7.10;3.90;;;21.00;99.90;;;;;;5026109;28;20467;-65
2023/05/05 08:06:54;;;;;;;7.53;4.17;;;21.10;99.90;;;;;;5024409;28;20280;-65
2023/05/05 08:09:19;;;;;;;5.77;4.37;;;21.10;99.90;;;;;;5026285;28;20200;-65
2023/05/05 08:11:45;;;;;;;5.13;4.17;;;21.20;99.90;;;;;;5023791;28;20286;-65
2023/05/05 08:14:10;;;;;;;4.30;3.90;;;21.30;99.90;;;;;;5025929;28;20185;-65
2023/05/05 08:16:36;;;;;;;4.17;3.80;;;21.30;99.90;;;;;;5023283;28;20559;-65
2023/05/05 08:19:02;;;;;;;7.50;4.27;;;21.40;99.90;;;;;;5022974;28;20259;-65
2023/05/05 08:21:28;;;;;;;6.73;6.07;;;21.40;99.90;;;;;;5023374;28;20212;-65
2023/05/05 08:23:53;;;;;;;6.00;4.30;;;21.40;99.90;;;;;;5024925;28;20855;-65
2023/05/05 08:26:19;;;;;;;5.83;4.57;;;21.30;99.90;;;;;;5022777;28;20254;-65
2023/05/05 08:28:45;;;;;;;6.83;3.90;;;21.30;99.90;;;;;;5024016;28;20200;-65
2023/05/05 08:31:11;;;;;;;4.07;3.70;;;21.30;99.90;;;;;;5025703;28;20219;-65
2023/05/05 08:33:36;;;;;;;5.70;4.20;;;21.30;99.90;;;;;;5025073;28;20455;-65
2023/05/05 08:36:02;;;;;;;6.00;4.90;;;21.40;99.90;;;;;;5024534;28;20273;-65
2023/05/05 08:38:28;;;;;;;4.23;3.83;;;21.50;99.90;;;;;;5021975;28;20558;-65
2023/05/05 08:40:53;;;;;;;6.23;4.37;;;21.70;99.90;;;;;;5025283;28;20196;-65
2023/05/05 08:43:21;;;;;;;3.97;3.57;;;22.00;99.90;;;;;;5022938;28;20189;-65
2023/05/05 08:45:48;;;;;;;4.53;3.37;;;22.00;99.90;;;;;;5024592;28;20185;-65
2023/05/05 08:48:18;;;;;;;10.27;4.97;;;22.00;99.90;;;;;;5018886;28;20455;-65
2023/05/05 08:50:48;;;;;;;4.20;3.70;;;22.00;99.90;;;;;;5023675;28;20459;-65
2023/05/05 08:53:29;;;;;;;5.10;3.90;;;22.10;99.90;;;;;;5025896;28;20943;-65
2023/05/05 08:55:58;;;;;;;4.00;3.60;;;22.10;99.70;;;;;;5019470;28;20411;-65
2023/05/05 08:58:23;;;;;;;6.53;4.23;;;22.30;99.80;;;;;;5025481;28;20435;-65
2023/05/05 09:00:50;;;;;;;6.13;3.97;;;22.60;99.30;;;;;;5023682;28;20431;-65
2023/05/05 09:03:16;;;;;;;4.50;3.90;;;22.60;99.10;;;;;;5021109;28;20211;-65
2023/05/05 09:05:42;;;;;;;5.27;3.63;;;22.60;98.90;;;;;;5025023;28;20530;-65
2023/05/05 09:08:09;;;;;;;4.63;4.13;;;22.70;98.80;;;;;;5024779;28;20787;-65
2023/05/05 09:10:38;;;;;;;4.43;3.70;;;22.70;98.80;;;;;;5025694;28;20478;-65
2023/05/05 09:13:05;;;;;;;5.93;3.90;;;22.80;99.00;;;;;;5025161;28;20446;-65
2023/05/05 09:15:31;;;;;;;5.73;4.10;;;22.80;98.90;;;;;;5022708;28;20454;-65
2023/05/05 09:17:58;;;;;;;3.97;3.33;;;22.80;98.50;;;;;;5021754;28;20439;-65
2023/05/05 09:20:28;;;;;;;4.57;4.10;;;22.90;98.40;;;;;;5022710;28;20431;-65
2023/05/05 09:22:54;;;;;;;5.53;3.40;;;22.90;98.20;;;;;;5022419;28;20438;-65
2023/05/05 09:25:20;;;;;;;6.40;4.20;;;23.00;98.40;;;;;;5021573;28;20431;-65
2023/05/05 09:27:47;;;;;;;4.47;4.07;;;23.10;98.10;;;;;;5025022;28;20736;-65
2023/05/05 09:30:16;;;;;;;4.63;4.17;;;23.20;98.00;;;;;;5023135;28;20192;-65
2023/05/05 09:32:53;;;;;;;4.10;3.67;;;23.30;97.60;;;;;;5023301;28;20415;-65
2023/05/05 09:35:20;;;;;;;5.30;4.10;;;23.40;97.50;;;;;;5022224;28;20781;-65
2023/05/05 09:37:46;;;;;;;5.90;4.50;;;23.40;96.90;;;;;;5024770;28;20932;-65
2023/05/05 09:40:14;;;;;;;5.00;4.33;;;23.50;96.90;;;;;;5021264;28;20530;-65
2023/05/05 09:42:40;;;;;;;5.13;4.20;;;23.50;96.50;;;;;;5023103;28;20418;-65
2023/05/05 09:45:26;;;;;;;7.10;4.30;;;23.50;96.40;;;;;;5023106;28;20404;-65
2023/05/05 09:47:52;;;;;;;9.23;5.07;;;23.60;96.30;;;;;;5019621;28;20454;-65
2023/05/05 09:50:17;;;;;;;5.17;4.30;;;23.70;96.60;;;;;;5021706;28;20822;-66
2023/05/05 09:53:00;;;;;;;6.30;4.53;;;23.80;96.10;;;;;;5023265;28;20180;-65
2023/05/05 09:55:25;;;;;;;5.60;4.13;;;23.70;95.70;;;;;;5022117;28;21180;-65
2023/05/05 09:57:51;;;;;;;4.30;3.90;;;23.70;95.90;;;;;;5021416;28;20455;-65
2023/05/05 10:00:17;;;;;;;4.40;4.00;;;23.80;96.20;;;;;;5019061;28;20230;-65
2023/05/05 10:02:43;;;;;;;5.83;4.00;;;23.90;95.70;;;;;;5022337;28;20177;-64
2023/05/05 10:05:16;;;;;;;8.00;3.83;;;24.00;95.70;;;;;;5022099;28;20439;-65
2023/05/05 10:07:44;;;;;;;4.10;3.30;;;23.90;95.60;;;;;;5018447;28;20189;-65
2023/05/05 10:10:12;;;;;;;5.17;3.63;;;23.90;95.60;;;;;;5020623;28;20471;-65
2023/05/05 10:12:38;;;;;;;5.33;3.60;;;23.90;95.40;;;;;;5019299;28;20431;-66
2023/05/05 10:15:06;;;;;;;4.67;3.80;;;23.90;94.50;;;;;;5019322;28;20918;-63
2023/05/05 10:17:42;;;;;;;5.03;3.97;;;24.00;94.40;;;;;;5018497;28;20492;-66
2023/05/05 10:20:09;;;;;;;7.10;5.10;;;24.10;94.30;;;;;;5023432;28;20462;-65
2023/05/05 10:22:35;;;;;;;4.47;3.80;;;24.10;94.30;;;;;;5023445;28;20490;-66
2023/05/05 10:25:09;;;;;;;14.30;3.80;;;24.20;94.20;;;;;;5022783;28;20423;-65
2023/05/05 10:27:49;;;;;;;8.20;4.50;;;24.10;93.00;;;;;;5019907;28;22890;-66
2023/05/05 10:30:28;;;;;;;6.90;4.40;;;23.90;93.00;;;;;;5019553;28;20422;-65
2023/05/05 10:32:58;;;;;;;7.30;4.60;;;24.00;93.40;;;;;;5024159;28;20501;-64
2023/05/05 10:35:27;;;;;;;6.53;3.13;;;24.10;93.30;;;;;;5022546;28;20408;-65
2023/05/05 10:37:54;;;;;;;4.67;3.20;;;24.00;92.40;;;;;;5022508;28;20462;-65
2023/05/05 10:40:21;;;;;;;3.97;3.40;;;24.10;92.60;;;;;;5022514;28;20431;-64
2023/05/05 10:42:48;;;;;;;4.80;3.80;;;24.20;92.40;;;;;;5022239;28;20427;-65
2023/05/05 10:45:14;;;;;;;4.70;3.20;;;24.40;92.20;;;;;;5019601;28;20426;-65
2023/05/05 10:47:40;;;;;;;4.53;3.40;;;24.50;91.70;;;;;;5024224;28;20517;-64
2023/05/05 10:50:24;;;;;;;3.50;3.20;;;24.60;91.50;;;;;;5025813;28;20184;-65
2023/05/05 10:53:11;;;;;;;9.63;3.83;;;24.80;91.30;;;;;;5025422;28;20183;-65
2023/05/05 10:56:07;;;;;;;5.90;3.47;;;25.10;90.70;;;;;;5024510;28;20427;-65
2023/05/05 10:58:34;;;;;;;3.93;3.63;;;25.20;90.30;;;;;;5026628;28;20489;-65
2023/05/05 11:01:01;;;;;;;7.10;3.40;;;25.20;89.80;;;;;;5024675;28;20459;-65
2023/05/05 11:03:27;;;;;;;3.17;2.80;;;25.30;89.60;;;;;;5020639;28;20932;-65
2023/05/05 11:06:06;;;;;;;9.50;4.10;;;25.20;89.30;;;;;;5021887;28;20519;-65
2023/05/05 11:08:42;;;;;;;3.77;3.07;;;25.50;87.80;;;;;;5023646;28;20441;-65
2023/05/05 11:11:11;;;;;;;8.10;3.60;;;25.50;86.20;;;;;;5021266;28;20561;-65
2023/05/05 11:13:39;;;;;;;5.00;3.23;;;25.60;85.40;;;;;;5026867;28;20454;-65
2023/05/05 11:16:25;;;;;;;5.20;3.60;;;25.70;85.50;;;;;;5025196;28;20411;-65
2023/05/05 11:18:50;;;;;;;3.93;3.53;;;25.70;86.50;;;;;;5018329;28;20436;-65
2023/05/05 11:21:16;;;;;;;3.00;2.70;;;25.80;86.30;;;;;;5025283;28;20437;-65
2023/05/05 11:24:05;;;;;;;5.13;3.23;;;25.80;85.00;;;;;;5027992;28;20227;-65
2023/05/05 11:26:50;;;;;;;3.10;2.80;;;26.00;84.60;;;;;;5023676;28;20419;-65
2023/05/05 11:29:15;;;;;;;3.33;3.03;;;26.20;82.60;;;;;;5025505;28;20477;-65
2023/05/05 11:31:41;;;;;;;4.60;3.57;;;26.20;83.80;;;;;;5022590;28;21015;-66
2023/05/05 11:34:26;;;;;;;6.30;4.20;;;26.60;82.70;;;;;;5025390;28;20180;-66
2023/05/05 11:36:56;;;;;;;4.30;3.90;;;27.00;81.80;;;;;;5022609;28;20633;-66
2023/05/05 11:39:38;;;;;;;8.03;6.40;;;27.10;79.70;;;;;;5026077;28;21090;-65
2023/05/05 11:42:31;;;;;;;6.10;3.83;;;27.10;80.20;;;;;;5022702;28;20439;-66
2023/05/05 11:44:57;;;;;;;3.90;3.50;;;27.30;78.80;;;;;;5020707;28;20513;-66
2023/05/05 11:47:22;;;;;;;3.80;3.00;;;27.40;78.90;;;;;;5023067;28;20448;-65
2023/05/05 11:49:48;;;;;;;3.20;2.90;;;27.40;75.40;;;;;;5023259;28;20199;-65
2023/05/05 11:52:14;;;;;;;6.43;3.20;;;27.50;75.40;;;;;;5021148;28;20307;-66
2023/05/05 11:54:46;;;;;;;4.90;3.47;;;27.40;74.30;;;;;;5025796;28;20510;-65
2023/05/05 11:57:13;;;;;;;5.40;3.50;;;27.70;75.10;;;;;;5022587;28;20180;-65
2023/05/05 11:59:56;;;;;;;3.90;3.30;;;27.50;72.80;;;;;;5024697;28;20808;-65
2023/05/05 12:02:23;;;;;;;4.40;3.00;;;27.50;73.70;;;;;;5021709;28;21310;-66
2023/05/05 12:04:49;;;;;;;4.07;3.10;;;27.40;72.40;;;;;;5023992;28;20510;-65
2023/05/05 12:07:21;;;;;;;3.43;3.00;;;27.40;71.20;;;;;;5021718;28;20455;-65
2023/05/05 12:09:48;;;;;;;3.60;2.97;;;27.50;69.70;;;;;;5019594;28;20500;-65
2023/05/05 12:12:14;;;;;;;4.07;3.10;;;27.60;68.10;;;;;;5024772;28;20507;-65
2023/05/05 12:14:51;;;;;;;6.80;3.50;;;27.90;68.90;;;;;;5020069;28;20415;-66
2023/05/05 12:17:18;;;;;;;3.17;2.60;;;28.50;67.60;;;;;;5022098;28;20875;-66
2023/05/05 12:19:49;;;;;;;4.67;3.57;;;29.70;66.10;;;;;;5022656;28;20458;-66
2023/05/05 12:22:22;;;;;;;4.23;2.87;;;31.10;64.60;;;;;;5025224;28;20394;-66
2023/05/05 12:24:55;;;;;;;4.57;3.70;;;32.30;60.40;;;;;;5024051;28;20409;-66
2023/05/05 12:27:21;;;;;;;3.47;3.17;;;33.50;57.30;;;;;;5024956;28;20452;-66
2023/05/05 12:29:47;;;;;;;4.87;4.43;;;33.70;55.90;;;;;;5027367;28;20409;-66
2023/05/05 12:32:25;;;;;;;7.77;3.10;;;34.10;56.00;;;;;;5022981;28;20434;-66
2023/05/05 12:34:58;;;;;;;4.47;3.53;;;34.80;52.30;;;;;;5021549;28;20184;-66
2023/05/05 12:37:25;;;;;;;3.70;2.80;;;35.30;49.40;;;;;;5023416;28;20390;-66
2023/05/05 12:39:53;;;;;;;2.53;2.33;;;34.00;48.60;;;;;;5026258;28;20970;-66
2023/05/05 12:42:20;;;;;;;3.10;2.70;;;33.80;49.00;;;;;;5024054;28;20813;-66
2023/05/05 12:44:45;;;;;;;3.93;2.57;;;33.90;48.50;;;;;;5026340;28;21052;-66
2023/05/05 12:47:11;;;;;;;3.93;2.73;;;33.90;48.10;;;;;;5018695;28;20448;-66
2023/05/05 12:49:45;;;;;;;3.90;2.97;;;33.30;48.20;;;;;;5022851;28;20756;-66
2023/05/05 12:52:10;;;;;;;3.60;2.83;;;32.90;48.20;;;;;;5022381;28;20467;-66